Igor I Sikorsky Memorial Airport
KBDR : now visible

Airfield :











YOU CAN JOIN US ON...

 
LOGIN :

Register | Disclaimer

   EN    FR    IT 

 









Legend :    VFR   Marginal VFR   IFR   Intensive IFR   Very Intensive IFR
Visi :
Ceiling :
>= 8 km
>= 3000ft
5 to 8 km
1000 to 3000 ft
1500m to 5 km
500 to 1000 ft
800 to 1500m
200 to 500 ft
< 800m
< 200 ft
Symbols :   Thunderstorms  Fog  Heavy snow  Heavy precipitations  Wind > 20 kt






- Airport Elevation : 9 ft
- IATA code : BDR


KBDR - Igor I Sikorsky Memorial

CURRENT METAR :
  • 231552Z 00000KT 10SM FEW029 SCT046 SCT095 21/19 A2988 RMK AO2 LTG DSNT E RAE44 SLP119 CB DSNT E P0026 T02060194

EXPIRED METARs :
  • 231534Z 21003KT 7SM RA SCT034 BKN090 OVC110 19/18 A2989 RMK AO2 LTG DSNT N-SE CB DSNT ALQDS P0026 T01940183
  • 231521Z 30007G19KT 4SM -TSRA BR FEW011 BKN095 OVC110 19/18 A2988 RMK AO2 LTG DSNT ALQDS CB DSNT ALQDS P0024 T01940178
  • 231507Z 00000KT 2SM +TSRA BR FEW010 SCT019 OVC038 19/17 A2990 RMK AO2 LTG DSNT ALQDS CB DSNT ALQDS P0021 T01890172
  • 231455Z 23011G18KT 3/4SM +TSRA BR FEW008 BKN019 OVC060 18/17 A2993 RMK AO2 LTG DSNT ALQDS P0008 T01830167
  • 231447Z 26009G17KT 1/2SM VCTS +RA FG SCT019 OVC065 18/16 A2992 RMK AO2 LTG DSNT ALQDS RAB38 PRESRR CB DSNT ALQDS P0001
  • 231352Z 14006KT 10SM SCT090 BKN110 19/17 A2985 RMK AO2 SLP107 T01940167
  • 231252Z 25007KT 10SM FEW025 SCT070 BKN100 19/17 A2987 RMK AO2 LTG DSNT ALQDS RAB33E50 SLP114 P0001 T01940172
  • 231152Z 21010KT 10SM CLR 19/16 A2986 RMK AO2 SLP111 T01940161 10194 20178 53001 $

TAF KBDR
Valid from the 23 at 16:00 until the 24 at 12:00 UTC


231541Z 2316/2412 21003KT P6SM VCSH BKN035 BKN090
FM232000 21007KT P6SM BKN040
FM240100 VRB03KT P6SM BKN040
KZBW FIR / North America



MET'MAP, your aeronautical weather chart ! - Copyright ORBIFLY December 2007 - Disclaimer

ORBIFLY MET'MAP TEAM :

Programming & Development : Alexandra Zaïnal
Original concept : Baudouin d'Aumeries
Technical & hardware support : Manuel Goepfert
Assistance : Marc-Olivier Méhu




SOURCES & CREDITS :

   NOAA       Earth
Advisory